Senisa — WDI8774 — position and weather

sailwx.info

Track history (hours):
 
Tides and Currents Weather Stations Pressure Air Temp Water Temp Dewpoint Dewpoint Depression Visibility Wind Speed Wind Dir Waves Ship Positions

Senisa

Owner: Well Wishes Yacht Charter LLC, Key Biscayne, FL. More information available from US FCC via Universal Licensing System and Coast Guard Vessel Documentation Center.

Last reported at 2018-Jan-02 00:46 UTC. Time now 2018-Jan-22 00:31 UTC.
Position N 25°47' W 080°11'.
Warning: this ship's position is 19 days out of date.

Length 24 m.

Type: Pleasure craft. MMSI: 367742040.

Date/timePositionNaut miles runAvg speedWind from/ knotsBaromVisibWave heightAir tempDewpointWater temp
2018-Jan-02 00:46N 25°47' W 080°11'0 0.4
2018-Jan-02 00:30N 25°47' W 080°11'2 4.4
2018-Jan-01 23:59N 25°45' W 080°10'0 0.0
2018-Jan-01 23:29N 25°45' W 080°10'0 0.0
2018-Jan-01 22:56N 25°45' W 080°10'0 0.0
2018-Jan-01 22:29N 25°45' W 080°10'0 0.0
2018-Jan-01 21:59N 25°45' W 080°10'0 0.0
2018-Jan-01 21:26N 25°45' W 080°10'0 0.0
2018-Jan-01 20:59N 25°45' W 080°10'0 0.5
2018-Jan-01 20:30N 25°45' W 080°10'0 0.8
2018-Jan-01 19:58N 25°44' W 080°10'2 5.4
2018-Jan-01 19:30N 25°47' W 080°11'0 0.0
2017-Dec-31 19:43N 25°47' W 080°11'0 0.0
2017-Dec-31 19:25N 25°47' W 080°11'  
2017-Dec-28 19:33N 25°47' W 080°11'0 0.0
2017-Dec-28 19:30N 25°47' W 080°11'2 4.9
2017-Dec-28 19:00N 25°46' W 080°08'0 0.0
2017-Dec-28 18:30N 25°46' W 080°08'1 2.1
2017-Dec-28 18:00N 25°46' W 080°10'2 3.0
2017-Dec-28 17:28N 25°47' W 080°11'  
2017-Dec-26 02:08N 25°47' W 080°11'0 0.0
2017-Dec-26 01:59N 25°47' W 080°11'0 0.0
2017-Dec-26 01:29N 25°47' W 080°11'0 0.0
2017-Dec-26 01:00N 25°47' W 080°11'2 4.5
2017-Dec-26 00:30N 25°45' W 080°11'0 0.7
2017-Dec-25 23:58N 25°44' W 080°10'0 0.0
2017-Dec-25 23:28N 25°44' W 080°10'0 0.0
2017-Dec-25 22:58N 25°44' W 080°10'0 0.1
2017-Dec-25 22:30N 25°44' W 080°10'3 5.6
2017-Dec-25 22:00N 25°47' W 080°09'2 3.5
2017-Dec-25 21:30N 25°46' W 080°11'0 0.7
2017-Dec-25 21:00N 25°47' W 080°11'0 0.0
2017-Dec-23 20:48N 25°47' W 080°11'0 0.0
2017-Dec-23 01:53N 25°47' W 080°11'0 0.0
2017-Dec-23 01:26N 25°47' W 080°11'0 0.0
2017-Dec-23 00:59N 25°47' W 080°11'  
Track history (hours):
 
Tides and Currents Weather Stations Pressure Air Temp Water Temp Dewpoint Dewpoint Depression Visibility Wind Speed Wind Dir Waves Ship Positions

Senisa

Owner: Well Wishes Yacht Charter LLC, Key Biscayne, FL. More information available from US FCC via Universal Licensing System and Coast Guard Vessel Documentation Center.

Last reported at 2018-Jan-02 00:46 UTC. Time now 2018-Jan-22 00:31 UTC.
Position N 25°47' W 080°11'.
Warning: this ship's position is 19 days out of date.

Length 24 m.

Type: Pleasure craft. MMSI: 367742040.

Date/timePositionNaut miles runAvg speedWind from/ knotsBaromVisibWave heightAir tempDewpointWater temp
2018-Jan-02 00:46N 25°47' W 080°11'0 0.4
2018-Jan-02 00:30N 25°47' W 080°11'2 4.4
2018-Jan-01 23:59N 25°45' W 080°10'0 0.0
2018-Jan-01 23:29N 25°45' W 080°10'0 0.0
2018-Jan-01 22:56N 25°45' W 080°10'0 0.0
2018-Jan-01 22:29N 25°45' W 080°10'0 0.0
2018-Jan-01 21:59N 25°45' W 080°10'0 0.0
2018-Jan-01 21:26N 25°45' W 080°10'0 0.0
2018-Jan-01 20:59N 25°45' W 080°10'0 0.5
2018-Jan-01 20:30N 25°45' W 080°10'0 0.8
2018-Jan-01 19:58N 25°44' W 080°10'2 5.4
2018-Jan-01 19:30N 25°47' W 080°11'0 0.0
2017-Dec-31 19:43N 25°47' W 080°11'0 0.0
2017-Dec-31 19:25N 25°47' W 080°11'  
2017-Dec-28 19:33N 25°47' W 080°11'0 0.0
2017-Dec-28 19:30N 25°47' W 080°11'2 4.9
2017-Dec-28 19:00N 25°46' W 080°08'0 0.0
2017-Dec-28 18:30N 25°46' W 080°08'1 2.1
2017-Dec-28 18:00N 25°46' W 080°10'2 3.0
2017-Dec-28 17:28N 25°47' W 080°11'  
2017-Dec-26 02:08N 25°47' W 080°11'0 0.0
2017-Dec-26 01:59N 25°47' W 080°11'0 0.0
2017-Dec-26 01:29N 25°47' W 080°11'0 0.0
2017-Dec-26 01:00N 25°47' W 080°11'2 4.5
2017-Dec-26 00:30N 25°45' W 080°11'0 0.7
2017-Dec-25 23:58N 25°44' W 080°10'0 0.0
2017-Dec-25 23:28N 25°44' W 080°10'0 0.0
2017-Dec-25 22:58N 25°44' W 080°10'0 0.1
2017-Dec-25 22:30N 25°44' W 080°10'3 5.6
2017-Dec-25 22:00N 25°47' W 080°09'2 3.5
2017-Dec-25 21:30N 25°46' W 080°11'0 0.7
2017-Dec-25 21:00N 25°47' W 080°11'0 0.0
2017-Dec-23 20:48N 25°47' W 080°11'0 0.0
2017-Dec-23 01:53N 25°47' W 080°11'0 0.0
2017-Dec-23 01:26N 25°47' W 080°11'0 0.0
2017-Dec-23 00:59N 25°47' W 080°11'  

Dump ship's entire track history